TimeMDT,TemperatureF,Dew PointF,Humidity,Sea Level PressureIn,VisibilityMPH,Wind Direction,Wind SpeedMPH,Gust SpeedMPH,PrecipitationIn,Events,Conditions,WindDirDegrees,DateUTC
12:03 AM,32.0,3.2,30,30.01,10.0,West,12.7,20.7,N/A,,Clear,260,2012-10-06 06:03:00
12:26 AM,32.0,3.2,30,30.01,10.0,West,9.2,20.7,N/A,,Clear,270,2012-10-06 06:26:00
12:44 AM,32.0,3.2,30,30.00,10.0,West,13.8,23.0,N/A,,Clear,270,2012-10-06 06:44:00
1:04 AM,30.2,3.2,32,30.00,10.0,West,16.1,20.7,N/A,,Clear,260,2012-10-06 07:04:00
1:24 AM,30.2,5.0,34,30.00,10.0,West,13.8,20.7,N/A,,Clear,260,2012-10-06 07:24:00
1:44 AM,28.4,6.8,40,30.01,10.0,West,10.4,-,N/A,,Clear,260,2012-10-06 07:44:00
2:04 AM,28.4,5.0,37,30.01,10.0,WSW,11.5,23.0,N/A,,Clear,250,2012-10-06 08:04:00
2:25 AM,26.6,8.6,47,30.00,10.0,West,13.8,21.9,N/A,,Clear,260,2012-10-06 08:25:00
2:44 AM,26.6,8.6,47,30.01,10.0,West,12.7,19.6,N/A,,Clear,280,2012-10-06 08:44:00
3:24 AM,24.8,10.4,54,30.00,10.0,West,12.7,21.9,N/A,,Clear,280,2012-10-06 09:24:00
3:44 AM,23.0,10.4,59,30.00,10.0,West,11.5,17.3,N/A,,Clear,280,2012-10-06 09:44:00
4:04 AM,23.0,12.2,63,30.00,10.0,West,12.7,18.4,N/A,,Clear,270,2012-10-06 10:04:00
4:23 AM,23.0,12.2,63,30.00,10.0,West,12.7,19.6,N/A,,Clear,280,2012-10-06 10:23:00
4:44 AM,21.2,12.2,68,30.00,10.0,West,12.7,17.3,N/A,,Clear,280,2012-10-06 10:44:00
5:04 AM,21.2,12.2,68,30.01,10.0,West,11.5,-,N/A,,Clear,280,2012-10-06 11:04:00
5:26 AM,21.2,14.0,74,30.01,10.0,West,15.0,-,N/A,,Clear,280,2012-10-06 11:26:00
5:44 AM,21.2,12.2,68,30.03,10.0,West,12.7,18.4,N/A,,Clear,280,2012-10-06 11:44:00
6:03 AM,21.2,12.2,68,30.03,10.0,West,10.4,18.4,N/A,,Clear,280,2012-10-06 12:03:00
6:23 AM,21.2,14.0,74,30.03,10.0,WNW,10.4,-,N/A,,Clear,290,2012-10-06 12:23:00
6:44 AM,21.2,14.0,74,30.04,10.0,WNW,8.1,-,N/A,,Clear,290,2012-10-06 12:44:00
7:03 AM,21.2,14.0,74,30.04,10.0,WNW,10.4,-,N/A,,Clear,290,2012-10-06 13:03:00
7:24 AM,21.2,14.0,74,30.04,10.0,WNW,9.2,-,N/A,,Clear,290,2012-10-06 13:24:00
7:45 AM,21.2,14.0,74,30.04,10.0,WNW,10.4,-,N/A,,Clear,290,2012-10-06 13:45:00
8:02 AM,21.2,14.0,74,30.05,10.0,WNW,9.2,-,N/A,,Clear,290,2012-10-06 14:02:00
8:24 AM,21.2,12.2,68,30.05,10.0,WNW,9.2,-,N/A,,Clear,290,2012-10-06 14:24:00
8:45 AM,21.2,12.2,68,30.06,10.0,West,9.2,-,N/A,,Clear,280,2012-10-06 14:45:00
9:04 AM,23.0,14.0,68,30.07,10.0,WNW,8.1,-,N/A,,Clear,290,2012-10-06 15:04:00
9:24 AM,23.0,14.0,68,30.07,10.0,WNW,8.1,-,N/A,,Clear,300,2012-10-06 15:24:00
9:44 AM,23.0,14.0,68,30.08,10.0,West,8.1,-,N/A,,Clear,270,2012-10-06 15:44:00
10:05 AM,23.0,14.0,68,30.08,10.0,West,6.9,-,N/A,,Clear,270,2012-10-06 16:05:00
10:25 AM,24.8,14.0,64,30.08,10.0,West,8.1,-,N/A,,Clear,270,2012-10-06 16:25:00
10:44 AM,24.8,12.2,59,30.08,10.0,West,8.1,-,N/A,,Clear,280,2012-10-06 16:44:00
11:04 AM,26.6,14.0,59,30.08,10.0,WNW,8.1,-,N/A,,Clear,290,2012-10-06 17:04:00
11:23 AM,26.6,12.2,55,30.08,10.0,WNW,9.2,-,N/A,,Clear,290,2012-10-06 17:23:00
11:45 AM,26.6,10.4,51,30.08,10.0,West,9.2,-,N/A,,Scattered Clouds,270,2012-10-06 17:45:00
12:04 PM,26.6,8.6,47,30.07,10.0,WNW,13.8,21.9,N/A,,Scattered Clouds,290,2012-10-06 18:04:00
12:24 PM,28.4,8.6,43,30.08,10.0,NW,9.2,23.0,N/A,,Clear,310,2012-10-06 18:24:00
12:45 PM,28.4,8.6,43,30.07,10.0,NW,13.8,19.6,N/A,,Clear,310,2012-10-06 18:45:00
1:03 PM,28.4,6.8,40,30.07,10.0,West,12.7,20.7,N/A,,Clear,280,2012-10-06 19:03:00
1:24 PM,30.2,5.0,34,30.06,10.0,WNW,12.7,19.6,N/A,,Scattered Clouds,300,2012-10-06 19:24:00
1:45 PM,32.0,5.0,32,30.06,10.0,WNW,10.4,19.6,N/A,,Clear,290,2012-10-06 19:45:00
2:04 PM,32.0,3.2,30,30.05,10.0,West,8.1,16.1,N/A,,Clear,270,2012-10-06 20:04:00
2:25 PM,32.0,5.0,32,30.04,10.0,WNW,10.4,16.1,N/A,,Clear,290,2012-10-06 20:25:00
2:44 PM,32.0,6.8,35,30.04,10.0,West,11.5,-,N/A,,Clear,270,2012-10-06 20:44:00
3:05 PM,32.0,6.8,35,30.04,10.0,West,10.4,-,N/A,,Clear,270,2012-10-06 21:05:00
3:25 PM,33.8,5.0,30,30.04,10.0,WNW,6.9,-,N/A,,Clear,290,2012-10-06 21:25:00
4:04 PM,32.0,3.2,30,30.03,10.0,WNW,10.4,-,N/A,,Clear,300,2012-10-06 22:04:00
4:24 PM,32.0,3.2,30,30.03,10.0,West,9.2,-,N/A,,Clear,260,2012-10-06 22:24:00
4:44 PM,30.2,1.4,29,30.03,10.0,WSW,9.2,-,N/A,,Scattered Clouds,240,2012-10-06 22:44:00
5:04 PM,30.2,3.2,32,30.04,10.0,West,6.9,-,N/A,,Scattered Clouds,260,2012-10-06 23:04:00
5:24 PM,30.2,3.2,32,30.03,10.0,WNW,8.1,-,N/A,,Scattered Clouds,290,2012-10-06 23:24:00
5:43 PM,28.4,3.2,34,30.03,10.0,WNW,9.2,-,N/A,,Scattered Clouds,290,2012-10-06 23:43:00
6:03 PM,28.4,-0.4,29,30.04,10.0,West,9.2,-,N/A,,Scattered Clouds,270,2012-10-07 00:03:00
6:24 PM,28.4,1.4,31,30.04,10.0,WNW,9.2,-,N/A,,Mostly Cloudy,290,2012-10-07 00:24:00
6:44 PM,28.4,1.4,31,30.04,10.0,West,8.1,-,N/A,,Mostly Cloudy,280,2012-10-07 00:44:00
7:02 PM,26.6,3.2,37,30.04,10.0,WNW,8.1,-,N/A,,Overcast,290,2012-10-07 01:02:00
7:24 PM,26.6,3.2,37,30.04,10.0,West,8.1,-,N/A,,Overcast,280,2012-10-07 01:24:00
7:43 PM,26.6,3.2,37,30.04,10.0,West,8.1,-,N/A,,Overcast,280,2012-10-07 01:43:00
8:03 PM,26.6,3.2,37,30.04,10.0,West,9.2,-,N/A,,Overcast,280,2012-10-07 02:03:00
8:24 PM,26.6,3.2,37,30.04,10.0,West,6.9,-,N/A,,Scattered Clouds,260,2012-10-07 02:24:00
8:44 PM,26.6,3.2,37,30.03,10.0,West,8.1,-,N/A,,Scattered Clouds,260,2012-10-07 02:44:00
9:04 PM,26.6,1.4,34,30.03,10.0,WSW,8.1,-,N/A,,Scattered Clouds,250,2012-10-07 03:04:00
9:25 PM,26.6,1.4,34,30.03,10.0,WSW,10.4,-,N/A,,Clear,250,2012-10-07 03:25:00
9:44 PM,24.8,3.2,40,30.03,10.0,WSW,9.2,-,N/A,,Clear,240,2012-10-07 03:44:00
10:03 PM,24.8,3.2,40,30.03,10.0,WSW,8.1,-,N/A,,Clear,240,2012-10-07 04:03:00
10:24 PM,24.8,3.2,40,30.03,10.0,WSW,8.1,-,N/A,,Clear,240,2012-10-07 04:24:00
10:43 PM,24.8,3.2,40,30.03,10.0,WSW,8.1,-,N/A,,Clear,250,2012-10-07 04:43:00
11:04 PM,24.8,3.2,40,30.03,10.0,West,6.9,-,N/A,,Clear,260,2012-10-07 05:04:00
11:24 PM,24.8,3.2,40,30.02,10.0,West,8.1,-,N/A,,Clear,270,2012-10-07 05:24:00
11:44 PM,24.8,3.2,40,30.02,10.0,West,8.1,-,N/A,,Clear,270,2012-10-07 05:44:00